Time;durP1;ratioP1;P1;durP2;ratioP2;P2;SDS_P1;SDS_P2;PMS_P1;PMS_P2;Temp;Humidity;BMP_temperature;BMP_pressure;BME280_temperature;BME280_humidity;BME280_pressure;Samples;Min_cycle;Max_cycle;Signal;HPM_P1;HPM_P2
2023/06/22 00:00:26;;;;;;;7.57;4.05;;;17.50;99.90;;;;;;5068276;28;20059;-61
2023/06/22 00:02:55;;;;;;;8.07;3.75;;;17.50;99.90;;;;;;5067868;28;20468;-60
2023/06/22 00:05:22;;;;;;;8.65;4.50;;;17.50;99.90;;;;;;5067863;28;20051;-62
2023/06/22 00:07:50;;;;;;;15.98;4.50;;;17.50;99.90;;;;;;5054664;28;20041;-60
2023/06/22 00:10:18;;;;;;;8.63;4.30;;;17.50;99.90;;;;;;5067764;28;20060;-60
2023/06/22 00:12:46;;;;;;;5.60;4.22;;;17.50;99.90;;;;;;5066682;28;20052;-61
2023/06/22 00:15:14;;;;;;;6.47;4.32;;;17.50;99.90;;;;;;5069074;28;20052;-66
2023/06/22 00:17:41;;;;;;;7.40;4.15;;;17.40;99.90;;;;;;5067670;28;20048;-60
2023/06/22 00:20:10;;;;;;;4.68;3.80;;;17.40;99.90;;;;;;5070328;28;20048;-60
2023/06/22 00:22:38;;;;;;;7.88;4.40;;;17.40;99.90;;;;;;5067825;28;20044;-60
2023/06/22 00:25:09;;;;;;;4.97;3.80;;;17.40;99.90;;;;;;5071466;28;20385;-61
2023/06/22 00:27:37;;;;;;;9.55;4.45;;;17.30;99.90;;;;;;5071133;28;20504;-64
2023/06/22 00:30:07;;;;;;;8.45;4.28;;;17.30;99.90;;;;;;5071244;28;20055;-63
2023/06/22 00:32:35;;;;;;;7.95;4.38;;;17.30;99.90;;;;;;5071383;28;20048;-63
2023/06/22 00:35:03;;;;;;;7.70;4.32;;;17.20;99.90;;;;;;5071209;28;20056;-62
2023/06/22 00:37:30;;;;;;;10.07;4.63;;;17.20;99.90;;;;;;5065804;28;20510;-60
2023/06/22 00:39:59;;;;;;;7.10;3.92;;;17.20;99.90;;;;;;5070877;28;20365;-62
2023/06/22 00:42:26;;;;;;;7.50;5.22;;;17.20;99.90;;;;;;5070004;28;20432;-61
2023/06/22 00:44:54;;;;;;;8.30;5.00;;;17.10;99.90;;;;;;5071002;28;20049;-61
2023/06/22 00:47:24;;;;;;;10.88;5.97;;;17.10;99.90;;;;;;5067128;28;20195;-61
2023/06/22 00:49:52;;;;;;;12.13;5.47;;;17.10;99.90;;;;;;5070814;28;20047;-61
2023/06/22 00:52:27;;;;;;;9.15;6.00;;;17.10;99.90;;;;;;5060307;28;20044;-59
2023/06/22 00:54:57;;;;;;;12.90;5.65;;;17.10;99.90;;;;;;5068384;28;20044;-62
2023/06/22 00:57:27;;;;;;;9.77;6.00;;;17.10;99.90;;;;;;5070410;28;20049;-60
2023/06/22 00:59:56;;;;;;;8.13;5.50;;;17.00;99.90;;;;;;5070644;28;20055;-61
2023/06/22 01:02:24;;;;;;;11.25;5.88;;;17.10;99.90;;;;;;5067913;28;20055;-63
2023/06/22 01:04:51;;;;;;;11.38;5.95;;;17.10;99.90;;;;;;5066990;28;20590;-62
2023/06/22 01:07:43;;;;;;;11.65;6.13;;;17.10;99.90;;;;;;5068798;28;20045;-63
2023/06/22 01:10:41;;;;;;;9.40;5.53;;;17.00;99.90;;;;;;5049603;28;20059;-66
2023/06/22 01:13:37;;;;;;;10.80;6.25;;;17.00;99.90;;;;;;5054452;28;20047;-68
2023/06/22 01:16:10;;;;;;;8.38;5.20;;;17.10;99.90;;;;;;5069437;28;20515;-61
2023/06/22 01:18:42;;;;;;;13.02;5.97;;;17.10;99.90;;;;;;5070138;28;20044;-63
2023/06/22 01:21:13;;;;;;;11.57;4.90;;;17.00;99.90;;;;;;5069261;28;20059;-61
2023/06/22 01:23:47;;;;;;;8.88;5.30;;;17.00;99.90;;;;;;5060034;28;20041;-63
2023/06/22 01:26:27;;;;;;;8.13;5.10;;;17.00;99.90;;;;;;5070383;28;20510;-63
2023/06/22 01:28:58;;;;;;;8.32;5.30;;;17.00;99.90;;;;;;5068720;28;20048;-63
2023/06/22 01:31:29;;;;;;;8.05;5.50;;;16.90;99.90;;;;;;5058505;28;20045;-62
2023/06/22 01:34:01;;;;;;;10.43;4.68;;;16.90;99.90;;;;;;5058767;28;20047;-63
2023/06/22 01:36:30;;;;;;;10.05;4.88;;;16.90;99.90;;;;;;5073423;28;20048;-65
2023/06/22 01:38:59;;;;;;;12.05;5.53;;;16.90;99.90;;;;;;5072184;28;20037;-66
2023/06/22 01:41:29;;;;;;;6.90;5.18;;;16.90;99.90;;;;;;5072082;28;20412;-64
2023/06/22 01:43:57;;;;;;;9.45;5.05;;;16.90;99.90;;;;;;5058424;28;20056;-64
2023/06/22 01:46:25;;;;;;;10.23;5.30;;;16.90;99.90;;;;;;5063901;28;20052;-60
2023/06/22 01:48:54;;;;;;;9.15;5.30;;;16.90;99.90;;;;;;5072382;28;20040;-60
2023/06/22 01:51:22;;;;;;;7.45;4.72;;;16.90;99.90;;;;;;5060637;28;20057;-61
2023/06/22 01:53:50;;;;;;;11.00;5.03;;;16.80;99.90;;;;;;5064620;28;20048;-62
2023/06/22 01:56:19;;;;;;;8.70;4.75;;;16.80;99.90;;;;;;5060863;28;20059;-63
2023/06/22 01:59:01;;;;;;;6.50;4.80;;;16.80;99.90;;;;;;5071034;28;20053;-61
2023/06/22 02:01:39;;;;;;;11.32;5.00;;;16.80;99.90;;;;;;5073279;28;20045;-69
2023/06/22 02:04:13;;;;;;;10.60;5.20;;;16.80;99.90;;;;;;5071844;28;20049;-61
2023/06/22 02:06:45;;;;;;;9.38;5.60;;;16.90;99.90;;;;;;5071145;28;20526;-60
2023/06/22 02:09:15;;;;;;;11.05;5.13;;;16.90;99.90;;;;;;5072014;28;20043;-61
2023/06/22 02:11:47;;;;;;;11.32;5.90;;;16.90;99.90;;;;;;5071155;28;20048;-65
2023/06/22 02:14:15;;;;;;;7.78;4.72;;;16.90;99.90;;;;;;5072839;28;20041;-62
2023/06/22 02:16:46;;;;;;;9.05;5.32;;;16.90;99.90;;;;;;5074972;28;20052;-59
2023/06/22 02:19:18;;;;;;;10.20;5.40;;;17.00;99.90;;;;;;5071706;28;20480;-63
2023/06/22 02:21:46;;;;;;;12.52;5.60;;;17.00;99.90;;;;;;5083584;28;20079;-60
2023/06/22 02:24:13;;;;;;;12.13;5.57;;;17.00;99.90;;;;;;5057979;28;20511;-66
2023/06/22 02:26:44;;;;;;;10.48;5.18;;;17.00;99.90;;;;;;5069497;28;20049;-69
2023/06/22 02:29:12;;;;;;;11.50;5.10;;;17.00;99.90;;;;;;5071385;28;20045;-66
2023/06/22 02:31:41;;;;;;;6.75;4.88;;;17.10;99.90;;;;;;5070680;28;20057;-65
2023/06/22 02:34:10;;;;;;;8.60;4.72;;;17.10;99.90;;;;;;5072454;28;20055;-67
2023/06/22 02:36:37;;;;;;;8.10;5.22;;;17.10;99.90;;;;;;5071162;28;20044;-68
2023/06/22 02:39:05;;;;;;;7.93;5.13;;;17.10;99.90;;;;;;5072482;28;20052;-67
2023/06/22 02:41:32;;;;;;;11.70;5.47;;;17.00;99.90;;;;;;5071427;28;20053;-60
2023/06/22 02:44:00;;;;;;;10.95;4.95;;;17.10;99.90;;;;;;5072157;28;20045;-63
2023/06/22 02:46:28;;;;;;;11.95;5.15;;;17.00;99.90;;;;;;5070869;28;20055;-63
2023/06/22 02:48:56;;;;;;;9.35;4.85;;;17.00;99.90;;;;;;5071215;28;20447;-68
2023/06/22 02:51:23;;;;;;;10.20;5.32;;;17.00;99.90;;;;;;5083917;28;20373;-61
2023/06/22 02:53:57;;;;;;;10.13;4.72;;;17.00;99.90;;;;;;5075228;28;20036;-62
2023/06/22 02:56:30;;;;;;;9.80;5.45;;;16.90;99.90;;;;;;5058752;28;20032;-63
2023/06/22 02:59:01;;;;;;;10.43;5.72;;;17.00;99.90;;;;;;5070723;28;20055;-66
2023/06/22 03:01:39;;;;;;;11.65;5.65;;;17.00;99.90;;;;;;5070581;28;20044;-60
2023/06/22 03:04:16;;;;;;;9.57;4.97;;;16.90;99.90;;;;;;5070674;28;20070;-60
2023/06/22 03:06:44;;;;;;;8.25;5.38;;;16.90;99.90;;;;;;5070685;28;20032;-65
2023/06/22 03:09:11;;;;;;;9.77;4.85;;;16.90;99.90;;;;;;5071926;28;20542;-64
2023/06/22 03:11:39;;;;;;;8.85;5.28;;;16.90;99.90;;;;;;5071675;28;20053;-62
2023/06/22 03:14:07;;;;;;;8.32;4.97;;;17.00;99.90;;;;;;5070605;28;20431;-62
2023/06/22 03:16:34;;;;;;;8.73;5.55;;;16.90;99.90;;;;;;5070786;28;20052;-62
2023/06/22 03:19:02;;;;;;;9.80;5.53;;;17.00;99.90;;;;;;5071693;28;20628;-63
2023/06/22 03:21:30;;;;;;;8.57;4.95;;;17.00;99.90;;;;;;5069654;28;20052;-63
2023/06/22 03:24:00;;;;;;;9.38;5.22;;;17.00;99.90;;;;;;5070296;28;20049;-62
2023/06/22 03:26:28;;;;;;;11.77;6.18;;;17.00;99.90;;;;;;5068112;28;20373;-64
2023/06/22 03:28:57;;;;;;;10.77;5.90;;;17.00;99.90;;;;;;5054029;28;20040;-61
2023/06/22 03:31:25;;;;;;;8.73;5.65;;;17.00;99.90;;;;;;5050363;28;20489;-61
2023/06/22 03:33:53;;;;;;;10.52;5.68;;;17.00;99.90;;;;;;5050295;28;20390;-60
2023/06/22 03:36:23;;;;;;;14.30;5.72;;;17.00;99.90;;;;;;5056875;28;20384;-60
2023/06/22 03:38:51;;;;;;;9.55;5.50;;;17.00;99.90;;;;;;5071409;28;20400;-59
2023/06/22 03:41:19;;;;;;;7.53;5.45;;;17.00;99.90;;;;;;5070171;28;20491;-61
2023/06/22 03:43:47;;;;;;;10.73;4.82;;;17.00;99.90;;;;;;5070063;28;20036;-59
2023/06/22 03:46:15;;;;;;;7.80;5.55;;;17.00;99.90;;;;;;5065813;28;20396;-64
2023/06/22 03:48:43;;;;;;;7.10;5.13;;;17.00;99.90;;;;;;5050111;28;20053;-63
2023/06/22 03:51:11;;;;;;;9.77;5.43;;;17.00;99.90;;;;;;5059542;28;20044;-61
2023/06/22 03:53:39;;;;;;;9.07;5.40;;;17.00;99.90;;;;;;5071195;28;20043;-71
2023/06/22 03:56:06;;;;;;;9.57;5.70;;;17.00;99.90;;;;;;5067725;28;20053;-61
2023/06/22 03:58:35;;;;;;;10.10;4.70;;;16.90;99.90;;;;;;5071034;28;20037;-58
2023/06/22 04:01:02;;;;;;;11.90;5.88;;;16.90;99.90;;;;;;5071385;28;20044;-60
2023/06/22 04:03:30;;;;;;;10.43;5.82;;;16.90;99.90;;;;;;5071009;28;20064;-61
2023/06/22 04:05:58;;;;;;;10.88;5.63;;;16.90;99.90;;;;;;5069490;28;20075;-60
2023/06/22 04:08:25;;;;;;;9.85;5.20;;;16.90;99.90;;;;;;5069941;28;20055;-62
2023/06/22 04:10:53;;;;;;;8.20;5.10;;;16.90;99.90;;;;;;5069792;28;20052;-71
2023/06/22 04:13:21;;;;;;;10.95;4.65;;;16.90;99.90;;;;;;5071123;28;20087;-64
2023/06/22 04:15:48;;;;;;;11.55;5.22;;;16.90;99.90;;;;;;5070293;28;20052;-58
2023/06/22 04:18:16;;;;;;;7.63;4.63;;;16.90;99.90;;;;;;5070471;28;20052;-59
2023/06/22 04:20:46;;;;;;;10.77;4.97;;;16.90;99.90;;;;;;5070617;28;20055;-61
2023/06/22 04:23:14;;;;;;;8.95;5.38;;;16.80;99.90;;;;;;5070994;28;20052;-61
2023/06/22 04:25:42;;;;;;;7.15;4.38;;;16.80;99.90;;;;;;5070816;28;20060;-67
2023/06/22 04:28:12;;;;;;;8.10;4.78;;;16.80;99.90;;;;;;5071084;28;20494;-66
2023/06/22 04:30:46;;;;;;;;;;;16.80;99.90;;;;;;5071302;28;20044;-60
2023/06/22 04:33:14;;;;;;;7.80;4.68;;;16.80;99.90;;;;;;5071130;28;19920;-62
2023/06/22 04:35:45;;;;;;;7.03;4.47;;;16.80;99.90;;;;;;5070696;28;20053;-69
2023/06/22 04:38:13;;;;;;;6.22;4.22;;;16.70;99.90;;;;;;5070863;28;20044;-60
2023/06/22 04:40:40;;;;;;;6.95;4.40;;;16.70;99.90;;;;;;5070889;28;20404;-59
2023/06/22 04:43:09;;;;;;;8.40;4.07;;;16.60;99.90;;;;;;5070737;28;20053;-59
2023/06/22 04:45:37;;;;;;;7.57;3.90;;;16.60;99.90;;;;;;5064741;28;20056;-60
2023/06/22 04:48:06;;;;;;;7.90;4.70;;;16.60;99.90;;;;;;5055848;28;20298;-59
2023/06/22 04:50:38;;;;;;;8.45;4.03;;;16.50;99.90;;;;;;5047721;28;20611;-60
2023/06/22 04:53:07;;;;;;;6.03;4.13;;;16.50;99.90;;;;;;5049358;28;20167;-64
2023/06/22 04:55:37;;;;;;;13.35;4.60;;;16.50;99.90;;;;;;5067561;28;20048;-62
2023/06/22 04:58:05;;;;;;;7.47;4.47;;;16.40;99.90;;;;;;5076076;28;20483;-63
2023/06/22 05:00:36;;;;;;;12.55;6.45;;;16.40;99.90;;;;;;5087122;28;20055;-60
2023/06/22 05:03:06;;;;;;;10.75;6.22;;;16.40;99.90;;;;;;5060317;28;20056;-63
2023/06/22 05:05:46;;;;;;;12.45;6.13;;;16.40;99.90;;;;;;5046329;28;20045;-59
2023/06/22 05:08:14;;;;;;;9.05;5.32;;;16.40;99.90;;;;;;5067193;28;20059;-61
2023/06/22 05:10:42;;;;;;;15.35;8.05;;;16.40;99.90;;;;;;5068185;28;20056;-60
2023/06/22 05:13:26;;;;;;;10.98;6.68;;;16.40;99.90;;;;;;5068452;28;20044;-62
2023/06/22 05:16:00;;;;;;;13.95;7.28;;;16.40;99.90;;;;;;5060979;28;20045;-59
2023/06/22 05:18:30;;;;;;;13.35;5.82;;;16.40;99.90;;;;;;5060040;28;20543;-64
2023/06/22 05:20:59;;;;;;;16.88;7.13;;;16.40;99.90;;;;;;5050632;28;20048;-63
2023/06/22 05:23:27;;;;;;;17.92;7.53;;;16.40;99.90;;;;;;5060480;28;20517;-61
2023/06/22 05:25:57;;;;;;;15.15;8.23;;;16.40;99.90;;;;;;5061768;28;20056;-60
2023/06/22 05:28:26;;;;;;;16.38;7.85;;;16.40;99.90;;;;;;5068364;28;20052;-60
2023/06/22 05:30:54;;;;;;;14.13;7.18;;;16.40;99.90;;;;;;5062411;28;20053;-60
2023/06/22 05:33:22;;;;;;;14.60;7.32;;;16.40;99.90;;;;;;5057948;28;20514;-65
2023/06/22 05:35:50;;;;;;;17.00;8.48;;;16.40;99.90;;;;;;5054620;28;20106;-68
2023/06/22 05:38:18;;;;;;;13.77;7.53;;;16.40;99.90;;;;;;5070054;28;20044;-64
2023/06/22 05:40:45;;;;;;;11.50;6.90;;;16.50;99.90;;;;;;5058960;28;20057;-68
2023/06/22 05:43:13;;;;;;;13.00;6.13;;;16.50;99.90;;;;;;5058152;28;20056;-66
2023/06/22 05:45:42;;;;;;;7.95;5.35;;;16.50;99.90;;;;;;5065815;28;20051;-68
2023/06/22 05:48:09;;;;;;;12.52;5.03;;;16.60;99.90;;;;;;5062022;28;20041;-60
2023/06/22 05:50:37;;;;;;;11.48;5.78;;;16.60;99.90;;;;;;5050153;28;20507;-61
2023/06/22 05:53:06;;;;;;;11.07;5.20;;;16.60;99.90;;;;;;5060219;28;20055;-60
2023/06/22 05:55:34;;;;;;;8.63;4.68;;;16.70;99.90;;;;;;5066698;28;20495;-61
2023/06/22 05:58:03;;;;;;;7.38;4.18;;;15.80;99.90;;;;;;5064272;28;20048;-59
2023/06/22 06:00:31;;;;;;;6.13;4.50;;;16.80;99.90;;;;;;5065099;28;20049;-59
2023/06/22 06:03:03;;;;;;;6.90;4.28;;;16.80;99.90;;;;;;5063966;28;20040;-63
2023/06/22 06:05:34;;;;;;;6.43;3.90;;;16.90;99.90;;;;;;5086774;28;20484;-59
2023/06/22 06:08:04;;;;;;;4.95;3.67;;;16.90;99.90;;;;;;5070240;28;20056;-59
2023/06/22 06:10:33;;;;;;;;;;;17.00;99.90;;;;;;5069742;28;20351;-61
2023/06/22 06:13:07;;;;;;;6.40;3.72;;;17.10;99.90;;;;;;5073980;28;19919;-62
2023/06/22 06:15:35;;;;;;;6.45;4.20;;;17.20;99.90;;;;;;5074724;28;20338;-63
2023/06/22 06:18:04;;;;;;;7.28;4.20;;;17.20;99.90;;;;;;5071312;28;20052;-60
2023/06/22 06:20:34;;;;;;;6.88;4.63;;;17.20;99.90;;;;;;5049281;28;20106;-59
2023/06/22 06:23:02;;;;;;;11.70;4.45;;;17.30;99.90;;;;;;5054829;28;20045;-60
2023/06/22 06:25:32;;;;;;;9.20;4.38;;;17.40;99.90;;;;;;5051193;28;20045;-61
2023/06/22 06:27:59;;;;;;;11.68;4.03;;;17.40;99.90;;;;;;5068516;28;20541;-59
2023/06/22 06:30:27;;;;;;;7.00;4.05;;;17.40;99.90;;;;;;5049664;28;20041;-59
2023/06/22 06:32:55;;;;;;;6.28;3.60;;;17.50;99.90;;;;;;5055874;28;20044;-58
2023/06/22 06:35:24;;;;;;;9.43;3.60;;;17.50;99.90;;;;;;5048195;28;20049;-60
2023/06/22 06:37:52;;;;;;;8.15;3.70;;;17.70;99.90;;;;;;5050864;28;20052;-59
2023/06/22 06:40:19;;;;;;;4.97;3.70;;;17.70;99.90;;;;;;5045780;28;20147;-59
2023/06/22 06:42:48;;;;;;;6.75;3.83;;;17.90;99.90;;;;;;5054513;28;20044;-59
2023/06/22 06:45:22;;;;;;;7.18;3.67;;;18.10;99.90;;;;;;5050762;28;20236;-59
2023/06/22 06:47:52;;;;;;;7.38;4.10;;;18.20;99.90;;;;;;5075397;28;20056;-59
2023/06/22 06:50:20;;;;;;;9.70;3.75;;;18.30;99.90;;;;;;5051783;28;20047;-66
2023/06/22 06:52:51;;;;;;;8.15;3.75;;;18.50;99.90;;;;;;5076299;28;20043;-66
2023/06/22 06:55:20;;;;;;;7.43;2.97;;;18.70;99.90;;;;;;5068594;28;20044;-67
2023/06/22 06:57:48;;;;;;;7.57;3.78;;;18.80;99.90;;;;;;5066212;28;20048;-66
2023/06/22 07:00:16;;;;;;;6.13;3.50;;;18.90;99.90;;;;;;5065263;28;20059;-63
2023/06/22 07:02:47;;;;;;;14.18;3.67;;;19.00;99.90;;;;;;5065079;28;20190;-61
2023/06/22 07:05:15;;;;;;;10.65;3.92;;;19.00;99.90;;;;;;5059512;28;20053;-60
2023/06/22 07:07:43;;;;;;;7.85;3.38;;;19.10;99.90;;;;;;5050980;28;20048;-61
2023/06/22 07:10:11;;;;;;;8.63;3.63;;;19.10;99.90;;;;;;5065641;28;20533;-59
2023/06/22 07:12:39;;;;;;;7.25;3.83;;;19.20;99.90;;;;;;5065021;28;20048;-60
2023/06/22 07:15:09;;;;;;;7.78;3.33;;;19.20;99.90;;;;;;5062105;28;20044;-60
2023/06/22 07:17:37;;;;;;;11.68;3.90;;;19.20;99.90;;;;;;5078516;28;20053;-60
2023/06/22 07:20:09;;;;;;;7.50;3.90;;;19.20;99.90;;;;;;5053290;28;20047;-59
2023/06/22 07:22:42;;;;;;;6.97;3.65;;;19.10;99.90;;;;;;5063452;28;20051;-60
2023/06/22 07:25:13;;;;;;;10.40;4.18;;;19.10;99.90;;;;;;5064565;28;20049;-62
2023/06/22 07:27:56;;;;;;;9.68;3.70;;;19.10;99.90;;;;;;5045844;28;20590;-59
2023/06/22 07:30:24;;;;;;;5.88;4.20;;;19.20;99.90;;;;;;5029757;28;20052;-60
2023/06/22 07:32:52;;;;;;;12.80;4.63;;;19.20;99.90;;;;;;5042397;28;20044;-60
2023/06/22 07:35:20;;;;;;;6.80;4.00;;;19.20;99.90;;;;;;5050193;28;20052;-59
2023/06/22 07:37:48;;;;;;;7.43;4.05;;;19.30;99.90;;;;;;5053548;28;20044;-59
2023/06/22 07:40:15;;;;;;;9.00;4.10;;;19.30;99.90;;;;;;5065038;28;20052;-58
2023/06/22 07:42:44;;;;;;;7.18;4.20;;;19.40;99.90;;;;;;5063639;28;20048;-60
2023/06/22 07:45:12;;;;;;;7.03;3.60;;;19.50;99.90;;;;;;5063085;28;20044;-59
2023/06/22 07:47:40;;;;;;;8.95;3.80;;;19.60;99.90;;;;;;5064319;28;20362;-61
2023/06/22 07:50:08;;;;;;;11.70;4.65;;;19.60;99.90;;;;;;5046064;28;20065;-68
2023/06/22 07:52:36;;;;;;;5.45;4.40;;;19.70;99.90;;;;;;5050117;28;20049;-65
2023/06/22 07:55:04;;;;;;;7.22;4.00;;;19.80;99.90;;;;;;5064345;28;20411;-65
2023/06/22 07:57:35;;;;;;;12.18;4.28;;;19.90;99.90;;;;;;5063950;28;20056;-62
2023/06/22 08:00:15;;;;;;;10.57;5.22;;;20.00;99.90;;;;;;5064717;28;20048;-60
2023/06/22 08:02:45;;;;;;;11.27;4.80;;;20.10;99.90;;;;;;5064524;28;20373;-60
2023/06/22 08:05:15;;;;;;;10.52;5.30;;;20.10;99.90;;;;;;5068399;28;20056;-60
2023/06/22 08:07:46;;;;;;;9.43;4.90;;;20.10;99.90;;;;;;5070261;28;20048;-59
2023/06/22 08:10:15;;;;;;;11.43;4.97;;;20.20;99.90;;;;;;5065245;28;20052;-60
2023/06/22 08:12:43;;;;;;;10.23;4.35;;;20.20;99.90;;;;;;5059891;28;20060;-66
2023/06/22 08:15:11;;;;;;;6.05;4.30;;;20.30;99.90;;;;;;5077981;28;20480;-64
2023/06/22 08:17:39;;;;;;;7.43;4.00;;;20.50;99.90;;;;;;5078858;28;20063;-64
2023/06/22 08:20:14;;;;;;;7.25;4.63;;;20.40;99.90;;;;;;5057983;28;20373;-61
2023/06/22 08:22:43;;;;;;;7.00;3.90;;;20.50;99.90;;;;;;5044342;28;20497;-62
2023/06/22 08:25:11;;;;;;;8.55;4.60;;;20.70;99.90;;;;;;5044241;28;20096;-60
2023/06/22 08:27:39;;;;;;;6.45;4.07;;;20.80;99.90;;;;;;5048862;28;20053;-63
2023/06/22 08:30:10;;;;;;;9.77;4.43;;;20.80;99.90;;;;;;5058382;28;20056;-61
2023/06/22 08:32:38;;;;;;;9.90;4.13;;;20.90;99.90;;;;;;5064110;28;20550;-66
2023/06/22 08:35:08;;;;;;;6.03;3.72;;;21.00;99.90;;;;;;5054409;28;20049;-60
2023/06/22 08:37:38;;;;;;;5.43;3.78;;;21.10;99.90;;;;;;5048891;28;20055;-60
2023/06/22 08:40:09;;;;;;;7.22;3.28;;;21.10;99.90;;;;;;5062631;28;20056;-60
2023/06/22 08:42:38;;;;;;;9.95;4.03;;;21.10;99.90;;;;;;5066123;28;20788;-59
2023/06/22 08:45:06;;;;;;;7.17;4.33;;;21.20;99.90;;;;;;5078620;28;20403;-60
2023/06/22 08:47:34;;;;;;;8.02;3.97;;;21.20;99.90;;;;;;5083493;28;20048;-60
2023/06/22 08:50:05;;;;;;;8.50;3.90;;;21.20;99.90;;;;;;5066252;28;20488;-62
2023/06/22 08:52:33;;;;;;;10.10;4.38;;;21.30;99.90;;;;;;5047640;28;20072;-62
2023/06/22 08:55:01;;;;;;;7.28;3.97;;;21.30;99.90;;;;;;5036997;28;20048;-64
2023/06/22 08:57:30;;;;;;;6.55;4.15;;;21.30;99.90;;;;;;5051137;28;20052;-60
2023/06/22 08:59:58;;;;;;;8.75;4.88;;;21.30;99.90;;;;;;5056737;28;20063;-70
2023/06/22 09:02:31;;;;;;;9.73;4.93;;;21.30;99.90;;;;;;5055249;28;20115;-63
2023/06/22 09:04:59;;;;;;;6.50;4.10;;;21.20;99.90;;;;;;5054356;28;20065;-63
2023/06/22 09:07:28;;;;;;;7.15;4.45;;;21.20;99.90;;;;;;5049995;28;20049;-64
2023/06/22 09:09:56;;;;;;;6.15;4.00;;;21.10;99.90;;;;;;5051968;28;20064;-66
2023/06/22 09:12:26;;;;;;;6.35;4.38;;;21.00;99.90;;;;;;5050289;28;20052;-59
2023/06/22 09:14:54;;;;;;;8.63;5.00;;;20.90;99.90;;;;;;5054024;28;20392;-61
2023/06/22 09:17:22;;;;;;;7.32;4.22;;;20.90;99.90;;;;;;5059115;28;20603;-67
2023/06/22 09:19:50;;;;;;;9.55;4.72;;;20.80;99.90;;;;;;5053802;28;20057;-62
2023/06/22 09:22:18;;;;;;;9.60;4.95;;;20.70;99.90;;;;;;5068942;28;20058;-62
2023/06/22 09:24:46;;;;;;;7.70;5.55;;;20.70;99.90;;;;;;5064312;28;20044;-60
2023/06/22 09:27:13;;;;;;;12.20;5.18;;;20.70;99.90;;;;;;5067154;28;20485;-62
2023/06/22 09:29:41;;;;;;;12.02;6.95;;;20.70;99.90;;;;;;5049122;28;20488;-60
2023/06/22 09:32:09;;;;;;;11.05;6.13;;;20.80;99.90;;;;;;5059598;28;20044;-61
2023/06/22 09:34:37;;;;;;;9.00;6.50;;;20.80;99.90;;;;;;5063629;28;20060;-60
2023/06/22 09:37:05;;;;;;;8.48;5.97;;;20.90;99.90;;;;;;5065886;28;20044;-65
2023/06/22 09:39:32;;;;;;;12.65;6.43;;;20.90;99.90;;;;;;5070371;28;20567;-63
2023/06/22 09:42:00;;;;;;;9.55;6.65;;;21.00;99.90;;;;;;5069895;28;20045;-66
2023/06/22 09:44:28;;;;;;;11.70;6.13;;;21.10;99.90;;;;;;5077830;28;20044;-67
2023/06/22 09:46:56;;;;;;;10.18;6.57;;;21.10;99.90;;;;;;5089020;28;20051;-69
2023/06/22 09:49:24;;;;;;;9.30;6.47;;;21.20;99.90;;;;;;5069437;28;20045;-61
2023/06/22 09:52:11;;;;;;;8.40;6.22;;;21.20;99.90;;;;;;5061366;28;20040;-60
2023/06/22 09:54:39;;;;;;;10.32;6.47;;;21.20;99.90;;;;;;5064101;28;20043;-61
2023/06/22 09:57:07;;;;;;;15.05;6.65;;;21.20;99.90;;;;;;5068398;28;20059;-63
2023/06/22 09:59:34;;;;;;;14.40;6.43;;;21.10;99.90;;;;;;5054974;28;20059;-69
2023/06/22 10:02:02;;;;;;;13.35;7.05;;;21.10;99.90;;;;;;5051410;28;20324;-66
2023/06/22 10:04:30;;;;;;;13.90;7.70;;;21.20;99.90;;;;;;5061350;28;20053;-68
2023/06/22 10:06:59;;;;;;;11.48;7.00;;;21.20;99.90;;;;;;5062300;28;20049;-67
2023/06/22 10:09:27;;;;;;;12.35;6.80;;;21.20;99.90;;;;;;5056547;28;20049;-61
2023/06/22 10:11:55;;;;;;;15.68;7.40;;;21.30;99.90;;;;;;5050818;28;20040;-62
2023/06/22 10:14:24;;;;;;;13.15;7.13;;;21.40;99.90;;;;;;5074109;28;20063;-60
2023/06/22 10:16:52;;;;;;;14.03;7.30;;;21.50;99.90;;;;;;5068495;28;20519;-61
2023/06/22 10:19:20;;;;;;;15.25;7.30;;;21.60;99.90;;;;;;5060706;28;20044;-60
2023/06/22 10:21:48;;;;;;;14.57;7.53;;;21.70;99.90;;;;;;5052535;28;20057;-61
2023/06/22 10:24:15;;;;;;;13.63;5.85;;;22.00;99.90;;;;;;5076652;28;20369;-61
2023/06/22 10:26:43;;;;;;;9.85;6.47;;;22.30;99.90;;;;;;5063666;28;20049;-59
2023/06/22 10:29:10;;;;;;;8.23;5.72;;;22.70;99.90;;;;;;5061285;28;20044;-59
2023/06/22 10:31:44;;;;;;;9.77;6.00;;;23.00;99.90;;;;;;5054047;28;20392;-64
2023/06/22 10:34:12;;;;;;;10.07;5.45;;;23.60;99.90;;;;;;5071671;28;20059;-60
2023/06/22 10:36:40;;;;;;;9.45;5.30;;;23.60;99.90;;;;;;5059186;28;20047;-62
2023/06/22 10:39:07;;;;;;;13.00;5.50;;;24.00;99.90;;;;;;5067914;28;20495;-62
2023/06/22 10:41:35;;;;;;;9.13;5.40;;;24.30;99.90;;;;;;5068928;28;20048;-61
2023/06/22 10:44:03;;;;;;;9.73;5.15;;;24.60;99.90;;;;;;5068125;28;20056;-61
2023/06/22 10:46:31;;;;;;;7.15;5.00;;;24.90;99.90;;;;;;5065938;28;20504;-61
2023/06/22 10:48:58;;;;;;;8.27;4.47;;;25.20;99.90;;;;;;5060304;28;20049;-61
2023/06/22 10:51:28;;;;;;;11.30;6.22;;;25.40;99.90;;;;;;5048389;28;20071;-69
2023/06/22 10:53:55;;;;;;;7.75;5.60;;;25.60;99.90;;;;;;5066620;28;20412;-61
2023/06/22 10:56:23;;;;;;;9.35;6.07;;;25.80;99.90;;;;;;5058976;28;20056;-68
2023/06/22 10:58:51;;;;;;;8.00;5.07;;;25.90;99.90;;;;;;5063092;28;20045;-70
2023/06/22 11:01:20;;;;;;;8.18;5.45;;;25.80;99.90;;;;;;5065851;28;20495;-60
2023/06/22 11:04:03;;;;;;;9.05;5.22;;;25.90;99.90;;;;;;5058347;28;20272;-60
2023/06/22 11:06:32;;;;;;;13.95;5.80;;;25.90;99.90;;;;;;5054398;28;20369;-59
2023/06/22 11:08:59;;;;;;;7.68;5.35;;;26.00;99.90;;;;;;5057370;28;20061;-62
2023/06/22 11:11:30;;;;;;;13.93;5.60;;;26.00;99.90;;;;;;5061064;28;20109;-60
2023/06/22 11:13:57;;;;;;;9.45;5.85;;;26.00;99.90;;;;;;5065004;28;20060;-61
2023/06/22 11:16:25;;;;;;;17.10;6.18;;;26.10;99.90;;;;;;5077134;28;20070;-60
2023/06/22 11:18:53;;;;;;;13.77;8.00;;;26.10;99.90;;;;;;5075901;28;20403;-60
2023/06/22 11:21:22;;;;;;;10.48;5.78;;;26.10;99.90;;;;;;5058197;28;20049;-62
2023/06/22 11:23:50;;;;;;;14.73;6.43;;;26.00;99.90;;;;;;5067566;28;20435;-70
2023/06/22 11:26:18;;;;;;;10.02;6.78;;;26.00;99.90;;;;;;5054780;28;20064;-64
2023/06/22 11:28:46;;;;;;;8.95;5.43;;;25.80;99.90;;;;;;5061081;28;20086;-65
2023/06/22 11:31:14;;;;;;;8.95;6.65;;;25.70;99.90;;;;;;5059585;28;20503;-69
2023/06/22 11:33:53;;;;;;;;;;;25.80;99.90;;;;;;5066269;28;20511;-69
2023/06/22 11:36:21;;;;;;;11.18;7.15;;;25.90;99.90;;;;;;5063086;28;19921;-69
2023/06/22 11:38:49;;;;;;;9.45;7.05;;;26.10;99.90;;;;;;5060628;28;20067;-70
2023/06/22 11:41:16;;;;;;;12.88;6.78;;;26.10;99.90;;;;;;5061850;28;20057;-69
2023/06/22 11:43:44;;;;;;;12.02;6.88;;;26.10;99.90;;;;;;5061350;28;20055;-62
2023/06/22 11:46:12;;;;;;;16.67;6.72;;;26.00;99.90;;;;;;5059753;28;20048;-62
2023/06/22 11:48:40;;;;;;;16.13;6.78;;;25.90;99.90;;;;;;5050056;28;20484;-63
2023/06/22 11:51:08;;;;;;;14.50;6.97;;;26.00;99.90;;;;;;5047924;28;20056;-63
2023/06/22 11:53:36;;;;;;;13.38;6.90;;;25.80;99.90;;;;;;5056206;28;20484;-63
2023/06/22 11:56:04;;;;;;;11.05;7.50;;;26.00;99.90;;;;;;5049305;28;20049;-62
2023/06/22 11:58:31;;;;;;;9.50;5.97;;;25.90;99.90;;;;;;5048647;28;20049;-62
2023/06/22 12:00:59;;;;;;;11.68;5.85;;;25.70;99.90;;;;;;5053260;28;20482;-63
2023/06/22 12:03:27;;;;;;;13.25;6.53;;;25.60;99.90;;;;;;5049149;28;20045;-61
2023/06/22 12:05:55;;;;;;;9.80;5.88;;;25.40;99.90;;;;;;5056627;28;20393;-63
2023/06/22 12:08:24;;;;;;;7.40;5.28;;;25.30;99.90;;;;;;5060696;28;20679;-68
2023/06/22 12:10:53;;;;;;;9.95;4.93;;;25.30;99.90;;;;;;5046942;28;20268;-69
2023/06/22 12:13:21;;;;;;;7.37;4.57;;;25.60;99.90;;;;;;5057403;28;20044;-69
2023/06/22 12:15:51;;;;;;;7.57;4.35;;;26.10;99.90;;;;;;5069492;28;20064;-67
2023/06/22 12:18:21;;;;;;;6.03;3.70;;;26.50;99.90;;;;;;5063976;28;20060;-66
2023/06/22 12:20:49;;;;;;;8.07;3.75;;;26.90;99.90;;;;;;5055086;28;20048;-63
2023/06/22 12:23:16;;;;;;;12.63;4.30;;;27.40;99.90;;;;;;5047553;28;20056;-61
2023/06/22 12:25:45;;;;;;;5.25;4.03;;;27.80;99.70;;;;;;5050974;28;20076;-63
2023/06/22 12:28:13;;;;;;;5.77;2.93;;;28.20;99.40;;;;;;5055943;28;20396;-61
2023/06/22 12:30:40;;;;;;;5.88;3.33;;;28.60;98.60;;;;;;5050129;28;20045;-62
2023/06/22 12:33:08;;;;;;;4.68;3.20;;;28.90;98.20;;;;;;5056211;28;20672;-62
2023/06/22 12:35:36;;;;;;;5.65;2.90;;;29.20;97.60;;;;;;5056577;28;20044;-63
2023/06/22 12:38:06;;;;;;;4.45;2.55;;;29.40;96.80;;;;;;5060331;28;20032;-69
2023/06/22 12:40:34;;;;;;;6.82;4.05;;;29.30;95.80;;;;;;5051164;28;20473;-69
2023/06/22 12:43:02;;;;;;;10.50;6.13;;;29.30;95.30;;;;;;5059481;28;20542;-63
2023/06/22 12:45:33;;;;;;;5.47;3.78;;;29.40;94.80;;;;;;5070543;28;20044;-67
2023/06/22 12:48:01;;;;;;;5.85;3.30;;;29.60;95.50;;;;;;5062876;28;20045;-64
2023/06/22 12:50:28;;;;;;;8.63;4.13;;;29.90;94.70;;;;;;5067587;28;20048;-70
2023/06/22 12:52:57;;;;;;;4.82;3.30;;;30.20;94.50;;;;;;5062355;28;20052;-65